createdAt,value
2022-08-19T00:00:11.236Z,24.15
2022-08-19T00:02:39.143Z,24.13
2022-08-19T00:05:20.592Z,24.17
2022-08-19T00:07:49.528Z,24.07
2022-08-19T00:10:19.431Z,24.13
2022-08-19T00:12:47.388Z,24.09
2022-08-19T00:15:19.864Z,24.05
2022-08-19T00:17:48.563Z,24.03
2022-08-19T00:20:20.892Z,24.05
2022-08-19T00:22:49.458Z,24.00
2022-08-19T00:25:17.807Z,24.00
2022-08-19T00:27:45.645Z,23.96
2022-08-19T00:30:13.796Z,23.94
2022-08-19T00:32:41.665Z,23.96
2022-08-19T00:35:10.750Z,23.94
2022-08-19T00:37:44.176Z,23.97
2022-08-19T00:40:13.683Z,23.91
2022-08-19T00:42:42.296Z,23.91
2022-08-19T00:45:22.008Z,23.91
2022-08-19T00:47:50.070Z,23.88
2022-08-19T00:50:21.119Z,23.96
2022-08-19T00:52:52.354Z,23.99
2022-08-19T00:55:25.880Z,23.96
2022-08-19T00:58:02.527Z,23.85
2022-08-19T01:00:32.608Z,23.77
2022-08-19T01:03:00.606Z,23.77
2022-08-19T01:05:30.249Z,23.76
2022-08-19T01:08:01.815Z,23.83
2022-08-19T01:10:36.666Z,23.91
2022-08-19T01:13:05.946Z,23.97
2022-08-19T01:15:43.139Z,23.97
2022-08-19T01:18:14.768Z,23.95
2022-08-19T01:20:44.145Z,23.96
2022-08-19T01:23:12.980Z,23.92
2022-08-19T01:25:50.931Z,23.91
2022-08-19T01:28:40.073Z,23.91
2022-08-19T01:31:27.158Z,23.90
2022-08-19T01:33:58.432Z,23.90
2022-08-19T01:36:35.065Z,23.84
2022-08-19T01:39:08.611Z,23.76
2022-08-19T01:41:36.967Z,23.76
2022-08-19T01:44:17.774Z,23.79
2022-08-19T01:46:49.515Z,23.82
2022-08-19T01:49:20.730Z,23.81
2022-08-19T01:51:50.488Z,23.78
2022-08-19T01:54:23.166Z,23.61
2022-08-19T01:57:07.744Z,23.71
2022-08-19T01:59:37.512Z,23.69
2022-08-19T02:02:09.743Z,23.75
2022-08-19T02:04:39.086Z,23.71
2022-08-19T02:07:09.147Z,23.63
2022-08-19T02:09:37.248Z,23.56
2022-08-19T02:12:08.629Z,23.51
2022-08-19T02:14:37.680Z,23.58
2022-08-19T02:17:05.589Z,23.46
2022-08-19T02:19:33.812Z,23.40
2022-08-19T02:22:01.984Z,23.41
2022-08-19T02:24:29.812Z,23.47
2022-08-19T02:26:58.328Z,23.38
2022-08-19T02:29:26.154Z,23.35
2022-08-19T02:31:54.120Z,23.27
2022-08-19T02:34:22.022Z,23.30
2022-08-19T02:36:51.743Z,23.27
2022-08-19T02:39:20.417Z,23.20
2022-08-19T02:41:48.293Z,23.28
2022-08-19T02:44:29.689Z,23.31
2022-08-19T02:47:00.359Z,23.29
2022-08-19T02:49:28.209Z,23.21
2022-08-19T02:51:56.081Z,23.18
2022-08-19T02:54:23.850Z,23.14
2022-08-19T02:56:51.649Z,23.12
2022-08-19T02:59:20.301Z,22.98
2022-08-19T03:01:50.945Z,22.97
2022-08-19T03:04:20.297Z,23.02
2022-08-19T03:06:49.492Z,23.00
2022-08-19T03:09:20.614Z,23.06
2022-08-19T03:11:48.689Z,23.13
2022-08-19T03:14:20.471Z,23.10
2022-08-19T03:16:53.389Z,22.99
2022-08-19T03:19:22.471Z,22.99
2022-08-19T03:21:51.580Z,22.97
2022-08-19T03:24:21.168Z,23.02
2022-08-19T03:26:53.574Z,23.00
2022-08-19T03:29:30.294Z,23.02
2022-08-19T03:32:02.030Z,23.02
2022-08-19T03:34:35.625Z,23.13
2022-08-19T03:37:10.569Z,23.13
2022-08-19T03:39:40.340Z,23.09
2022-08-19T03:42:38.186Z,23.02
2022-08-19T03:44:56.709Z,23.02
2022-08-19T03:47:24.512Z,22.97
2022-08-19T03:49:52.437Z,22.87
2022-08-19T03:52:20.398Z,22.88
2022-08-19T03:54:48.216Z,22.82
2022-08-19T03:57:16.022Z,22.86
2022-08-19T03:59:44.544Z,22.87
2022-08-19T04:02:13.723Z,22.88
2022-08-19T04:04:44.391Z,22.91
2022-08-19T04:07:17.131Z,22.87
2022-08-19T04:09:45.100Z,22.91
2022-08-19T04:12:12.951Z,22.78
2022-08-19T04:14:40.844Z,22.82
2022-08-19T04:17:08.732Z,22.86
2022-08-19T04:19:37.628Z,22.83
2022-08-19T04:22:06.079Z,22.81
2022-08-19T04:24:36.286Z,22.85
2022-08-19T04:27:07.137Z,22.84
2022-08-19T04:29:35.149Z,22.85
2022-08-19T04:32:09.437Z,22.89
2022-08-19T04:35:02.423Z,22.80
2022-08-19T04:37:35.058Z,22.84
2022-08-19T04:40:26.107Z,22.75
2022-08-19T04:42:54.683Z,22.81
2022-08-19T04:45:23.260Z,22.80
2022-08-19T04:47:58.399Z,22.70
2022-08-19T04:50:46.039Z,22.74
2022-08-19T04:53:13.817Z,22.73
2022-08-19T04:55:43.554Z,22.58
2022-08-19T04:58:11.376Z,22.63
2022-08-19T05:00:40.996Z,22.63
2022-08-19T05:03:09.534Z,22.66
2022-08-19T05:05:44.668Z,22.79
2022-08-19T05:08:19.511Z,22.74
2022-08-19T05:10:59.638Z,22.69
2022-08-19T05:13:28.180Z,22.64
2022-08-19T05:15:58.652Z,22.65
2022-08-19T05:18:46.240Z,22.70
2022-08-19T05:21:37.369Z,22.57
2022-08-19T05:24:10.495Z,22.63
2022-08-19T05:26:40.533Z,22.76
2022-08-19T05:29:10.281Z,22.79
2022-08-19T05:31:42.283Z,22.74
2022-08-19T05:34:20.448Z,22.74
2022-08-19T05:36:49.623Z,22.67
2022-08-19T05:39:21.504Z,22.69
2022-08-19T05:41:58.170Z,22.80
2022-08-19T05:44:32.691Z,22.81
2022-08-19T05:47:03.997Z,22.84
2022-08-19T05:49:34.053Z,22.62
2022-08-19T05:52:12.815Z,22.82
2022-08-19T05:54:42.569Z,22.83
2022-08-19T05:57:11.735Z,22.67
2022-08-19T05:59:41.221Z,22.63
2022-08-19T06:02:10.205Z,22.79
2022-08-19T06:04:38.706Z,22.76
2022-08-19T06:07:12.298Z,22.64
2022-08-19T06:09:43.772Z,22.73
2022-08-19T06:12:32.856Z,22.79
2022-08-19T06:15:02.844Z,22.72
2022-08-19T06:17:31.929Z,22.72
2022-08-19T06:20:16.256Z,22.73
2022-08-19T06:22:49.750Z,22.83
2022-08-19T06:25:18.264Z,22.84
2022-08-19T06:28:11.866Z,22.89
2022-08-19T06:30:34.591Z,22.74
2022-08-19T06:33:02.408Z,22.63
2022-08-19T06:35:30.633Z,22.71
2022-08-19T06:37:58.554Z,22.80
2022-08-19T06:40:28.485Z,22.75
2022-08-19T06:42:57.383Z,22.81
2022-08-19T06:45:35.498Z,22.96
2022-08-19T06:48:08.434Z,22.86
2022-08-19T06:50:36.842Z,22.86
2022-08-19T06:53:08.312Z,22.87
2022-08-19T06:55:36.344Z,22.94
2022-08-19T06:58:06.110Z,22.86
2022-08-19T07:00:34.834Z,22.80
2022-08-19T07:03:07.647Z,22.97
2022-08-19T07:05:45.814Z,23.04
2022-08-19T07:08:15.005Z,22.97
2022-08-19T07:10:47.543Z,22.81
2022-08-19T07:13:15.582Z,22.99
2022-08-19T07:15:43.468Z,23.10
2022-08-19T07:18:11.626Z,23.16
2022-08-19T07:20:41.963Z,23.22
2022-08-19T07:23:16.653Z,23.18
2022-08-19T07:25:51.365Z,23.27
2022-08-19T07:28:24.704Z,23.12
2022-08-19T07:30:53.923Z,23.10
2022-08-19T07:33:23.281Z,23.15
2022-08-19T07:35:51.165Z,23.05
2022-08-19T07:38:19.079Z,23.02
2022-08-19T07:40:47.078Z,23.01
2022-08-19T07:43:17.828Z,23.10
2022-08-19T07:45:47.936Z,23.27
2022-08-19T07:48:15.963Z,23.22
2022-08-19T07:50:44.289Z,23.17
2022-08-19T07:53:13.361Z,23.26
2022-08-19T07:55:43.836Z,23.31
2022-08-19T07:58:18.474Z,23.35
2022-08-19T08:00:49.552Z,23.24
2022-08-19T08:03:42.116Z,23.33
2022-08-19T08:06:30.681Z,23.35
2022-08-19T08:12:35.113Z,23.38
2022-08-19T08:15:08.996Z,23.51
2022-08-19T08:17:49.198Z,23.45
2022-08-19T08:20:20.491Z,23.33
2022-08-19T08:23:07.355Z,23.43
2022-08-19T08:25:37.239Z,23.47
2022-08-19T08:28:06.285Z,23.45
2022-08-19T08:30:36.789Z,23.28
2022-08-19T08:33:05.369Z,23.49
2022-08-19T08:35:34.391Z,23.45
2022-08-19T08:38:04.729Z,23.43
2022-08-19T08:41:00.024Z,23.58
2022-08-19T08:43:36.822Z,23.57
2022-08-19T08:46:13.219Z,23.58
2022-08-19T08:48:52.595Z,23.56
2022-08-19T08:52:03.064Z,23.55
2022-08-19T08:54:49.091Z,23.62
2022-08-19T08:57:40.889Z,23.73
2022-08-19T09:00:17.530Z,23.90
2022-08-19T09:02:50.518Z,23.91
2022-08-19T09:05:25.989Z,23.82
2022-08-19T09:08:35.345Z,23.92
2022-08-19T09:11:15.603Z,23.93
2022-08-19T09:14:06.078Z,24.01
2022-08-19T09:16:34.482Z,24.04
2022-08-19T09:19:08.137Z,24.11
2022-08-19T09:21:36.271Z,24.23
2022-08-19T09:24:07.309Z,24.31
2022-08-19T09:26:47.552Z,24.38
2022-08-19T09:29:22.692Z,24.31
2022-08-19T09:31:51.123Z,24.48
2022-08-19T09:34:22.112Z,24.53
2022-08-19T09:36:54.673Z,24.44
2022-08-19T09:39:23.432Z,24.41
2022-08-19T09:41:51.575Z,24.56
2022-08-19T09:44:23.069Z,24.69
2022-08-19T09:46:52.028Z,24.74
2022-08-19T09:49:22.877Z,24.84
2022-08-19T09:51:55.446Z,24.88
2022-08-19T09:54:25.225Z,24.91
2022-08-19T09:56:54.695Z,24.84
2022-08-19T09:59:24.429Z,24.78
2022-08-19T10:01:52.807Z,24.83
2022-08-19T10:04:22.424Z,24.89
2022-08-19T10:06:53.889Z,24.63
2022-08-19T10:09:33.570Z,24.83
2022-08-19T10:12:06.072Z,24.95
2022-08-19T10:14:34.781Z,25.03
2022-08-19T10:17:17.451Z,25.04
2022-08-19T10:19:55.020Z,25.10
2022-08-19T10:22:25.660Z,25.23
2022-08-19T10:24:54.613Z,25.32
2022-08-19T10:27:22.680Z,25.37
2022-08-19T10:29:50.593Z,25.48
2022-08-19T10:32:18.466Z,25.55
2022-08-19T10:35:05.326Z,25.72
2022-08-19T10:37:34.003Z,25.83
2022-08-19T10:40:05.177Z,25.83
2022-08-19T10:42:33.370Z,25.86
2022-08-19T10:45:01.475Z,25.84
2022-08-19T10:47:31.864Z,25.81
2022-08-19T10:50:18.379Z,25.85
2022-08-19T10:52:50.765Z,25.87
2022-08-19T10:55:41.872Z,26.03
2022-08-19T10:58:24.804Z,26.16
2022-08-19T11:00:56.485Z,26.37
2022-08-19T11:03:26.632Z,26.52
2022-08-19T11:06:07.062Z,26.65
2022-08-19T11:08:38.674Z,26.66
2022-08-19T11:11:09.087Z,26.73
2022-08-19T11:13:42.636Z,26.82
2022-08-19T11:16:14.868Z,26.83
2022-08-19T11:18:48.035Z,26.74
2022-08-19T11:21:25.285Z,26.74
2022-08-19T11:23:57.706Z,26.69
2022-08-19T11:26:26.741Z,26.72
2022-08-19T11:28:56.529Z,26.71
2022-08-19T11:31:32.122Z,26.65
2022-08-19T11:34:04.085Z,26.69
2022-08-19T11:36:34.351Z,26.67
2022-08-19T11:39:06.517Z,26.75
2022-08-19T11:41:34.806Z,26.77
2022-08-19T11:44:04.258Z,26.82
2022-08-19T11:46:33.069Z,26.88
2022-08-19T11:49:03.968Z,26.89
2022-08-19T11:51:33.402Z,26.74
2022-08-19T11:54:02.427Z,26.75
2022-08-19T11:56:30.384Z,26.58
2022-08-19T11:58:58.579Z,26.68
2022-08-19T12:01:28.205Z,26.73
2022-08-19T12:03:57.804Z,26.81
2022-08-19T12:06:31.152Z,26.89
2022-08-19T12:09:07.231Z,26.90
2022-08-19T12:11:35.273Z,26.78
2022-08-19T12:14:03.679Z,26.58
2022-08-19T12:16:33.697Z,26.86
2022-08-19T12:19:05.225Z,27.04
2022-08-19T12:21:36.468Z,27.22
2022-08-19T12:24:07.318Z,27.37
2022-08-19T12:26:53.488Z,27.42
2022-08-19T12:29:29.020Z,27.54
2022-08-19T12:32:03.809Z,27.43
2022-08-19T12:34:33.336Z,27.50
2022-08-19T12:37:05.616Z,27.30
2022-08-19T12:39:40.066Z,27.54
2022-08-19T12:42:09.742Z,27.66
2022-08-19T12:44:41.630Z,27.74
2022-08-19T12:47:12.062Z,27.88
2022-08-19T12:49:54.963Z,28.00
2022-08-19T12:52:28.088Z,28.02
2022-08-19T12:54:58.281Z,28.15
2022-08-19T12:57:32.857Z,28.08
2022-08-19T13:00:13.578Z,28.19
2022-08-19T13:02:45.207Z,28.16
2022-08-19T13:05:21.859Z,27.91
2022-08-19T13:07:53.296Z,28.04
2022-08-19T13:10:23.037Z,27.88
2022-08-19T13:12:52.878Z,27.77
2022-08-19T13:15:24.000Z,27.89
2022-08-19T13:17:57.123Z,27.77
2022-08-19T13:20:25.925Z,28.06
2022-08-19T13:22:54.121Z,28.24
2022-08-19T13:25:22.553Z,28.27
2022-08-19T13:27:51.810Z,28.27
2022-08-19T13:30:39.678Z,28.20
2022-08-19T13:33:11.896Z,28.17
2022-08-19T13:35:58.127Z,28.31
2022-08-19T13:38:26.531Z,28.06
2022-08-19T13:40:56.269Z,28.08
2022-08-19T13:43:27.920Z,28.18
2022-08-19T13:45:57.607Z,28.07
2022-08-19T13:48:27.946Z,28.14
2022-08-19T13:50:56.709Z,28.21
2022-08-19T13:53:25.619Z,28.23
2022-08-19T13:55:54.694Z,28.25
2022-08-19T13:58:23.714Z,28.17
2022-08-19T14:00:51.680Z,28.03
2022-08-19T14:03:19.496Z,28.16
2022-08-19T14:05:47.771Z,28.30
2022-08-19T14:08:15.923Z,28.36
2022-08-19T14:10:45.734Z,28.31
2022-08-19T14:13:19.508Z,28.43
2022-08-19T14:15:48.466Z,28.51
2022-08-19T14:18:20.462Z,28.51
2022-08-19T14:20:48.451Z,28.55
2022-08-19T14:23:16.259Z,28.58
2022-08-19T14:25:44.466Z,28.57
2022-08-19T14:28:12.241Z,28.60
2022-08-19T14:30:40.202Z,28.65
2022-08-19T14:33:09.491Z,28.66
2022-08-19T14:35:38.049Z,28.63
2022-08-19T14:38:07.726Z,28.72
2022-08-19T14:40:35.789Z,28.82
2022-08-19T14:43:05.538Z,28.81
2022-08-19T14:45:37.319Z,28.85
2022-08-19T14:48:12.585Z,28.76
2022-08-19T14:50:47.511Z,28.71
2022-08-19T14:53:17.888Z,29.03
2022-08-19T14:55:47.356Z,29.38
2022-08-19T14:58:29.042Z,29.65
2022-08-19T15:01:01.083Z,29.88
2022-08-19T15:03:30.374Z,29.86
2022-08-19T15:06:00.091Z,29.76
2022-08-19T15:08:30.579Z,29.86
2022-08-19T15:10:59.870Z,29.98
2022-08-19T15:13:29.945Z,29.73
2022-08-19T15:15:58.197Z,29.74
2022-08-19T15:18:26.210Z,29.75
2022-08-19T15:20:55.977Z,29.94
2022-08-19T15:23:32.683Z,30.09
2022-08-19T15:26:00.425Z,30.16
2022-08-19T15:28:28.336Z,30.25
2022-08-19T15:30:56.116Z,30.06
2022-08-19T15:33:23.945Z,30.14
2022-08-19T15:35:52.224Z,29.97
2022-08-19T15:38:24.485Z,29.64
2022-08-19T15:40:52.410Z,29.64
2022-08-19T15:43:24.190Z,29.56
2022-08-19T15:45:51.964Z,29.38
2022-08-19T15:48:19.765Z,29.20
2022-08-19T15:50:47.549Z,29.14
2022-08-19T15:53:16.050Z,29.11
2022-08-19T15:55:46.209Z,29.02
2022-08-19T15:58:34.089Z,28.82
2022-08-19T16:01:26.976Z,28.96
2022-08-19T16:04:16.288Z,29.09
2022-08-19T16:06:57.093Z,29.16
2022-08-19T16:09:29.792Z,29.11
2022-08-19T16:12:02.381Z,29.01
2022-08-19T16:14:33.463Z,28.99
2022-08-19T16:17:02.060Z,28.89
2022-08-19T16:19:31.044Z,28.83
2022-08-19T16:21:58.872Z,28.88
2022-08-19T16:24:28.545Z,28.85
2022-08-19T16:26:56.966Z,28.77
2022-08-19T16:29:34.572Z,28.76
2022-08-19T16:32:11.902Z,28.81
2022-08-19T16:34:41.832Z,28.84
2022-08-19T16:37:10.700Z,28.81
2022-08-19T16:39:39.409Z,28.82
2022-08-19T16:42:11.661Z,28.81
2022-08-19T16:44:45.772Z,28.82
2022-08-19T16:47:16.386Z,28.79
2022-08-19T16:49:53.438Z,28.76
2022-08-19T16:52:26.325Z,28.75
2022-08-19T16:54:54.895Z,28.67
2022-08-19T16:57:23.939Z,28.59
2022-08-19T16:59:52.561Z,28.51
2022-08-19T17:02:23.318Z,28.43
2022-08-19T17:04:57.421Z,28.33
2022-08-19T17:07:32.287Z,28.24
2022-08-19T17:10:04.782Z,28.18
2022-08-19T17:12:32.682Z,28.11
2022-08-19T17:15:08.216Z,28.03
2022-08-19T17:17:37.398Z,27.97
2022-08-19T17:20:07.437Z,27.92
2022-08-19T17:22:37.131Z,27.86
2022-08-19T17:25:05.373Z,27.82
2022-08-19T17:27:33.215Z,27.78
2022-08-19T17:30:06.811Z,27.70
2022-08-19T17:32:35.151Z,27.66
2022-08-19T17:35:04.842Z,27.56
2022-08-19T17:37:34.564Z,27.54
2022-08-19T17:40:08.985Z,27.52
2022-08-19T17:42:36.934Z,27.48
2022-08-19T17:45:06.575Z,27.42
2022-08-19T17:47:36.695Z,27.35
2022-08-19T17:50:12.840Z,27.34
2022-08-19T17:52:40.648Z,27.30
2022-08-19T17:55:10.386Z,27.27
2022-08-19T17:57:46.065Z,27.23
2022-08-19T18:00:17.064Z,27.22
2022-08-19T18:02:52.327Z,27.16
2022-08-19T18:05:29.700Z,27.15
2022-08-19T18:07:59.872Z,27.10
2022-08-19T18:10:34.909Z,27.04
2022-08-19T18:13:10.830Z,27.02
2022-08-19T18:15:45.885Z,27.02
2022-08-19T18:18:14.991Z,26.93
2022-08-19T18:20:44.604Z,26.87
2022-08-19T18:23:41.225Z,26.82
2022-08-19T18:26:02.330Z,26.79
2022-08-19T18:28:31.107Z,26.78
2022-08-19T18:30:59.273Z,26.79
2022-08-19T18:33:27.227Z,26.75
2022-08-19T18:35:55.304Z,26.72
2022-08-19T18:38:42.095Z,26.68
2022-08-19T18:41:29.631Z,26.64
2022-08-19T18:44:16.151Z,26.58
2022-08-19T18:47:02.811Z,26.55
2022-08-19T18:49:34.769Z,26.56
2022-08-19T18:52:03.663Z,26.51
2022-08-19T18:54:31.450Z,26.49
2022-08-19T18:56:59.473Z,26.50
2022-08-19T18:59:29.346Z,26.46
2022-08-19T19:01:59.537Z,26.45
2022-08-19T19:04:34.191Z,26.41
2022-08-19T19:07:01.969Z,26.37
2022-08-19T19:09:29.941Z,26.35
2022-08-19T19:12:03.058Z,26.31
2022-08-19T19:14:50.446Z,26.54
2022-08-19T19:17:18.658Z,26.52
2022-08-19T19:19:46.516Z,26.38
2022-08-19T19:22:23.709Z,26.44
2022-08-19T19:24:54.126Z,26.43
2022-08-19T19:27:22.730Z,26.44
2022-08-19T19:29:52.568Z,26.46
2022-08-19T19:32:29.453Z,26.46
2022-08-19T19:34:57.447Z,26.46
2022-08-19T19:37:25.333Z,26.43
2022-08-19T19:39:53.209Z,26.45
2022-08-19T19:42:27.212Z,26.41
2022-08-19T19:44:56.281Z,26.37
2022-08-19T19:47:25.688Z,26.35
2022-08-19T19:52:46.063Z,26.30
2022-08-19T19:55:18.442Z,26.32
2022-08-19T19:57:48.821Z,26.33
2022-08-19T20:00:18.902Z,26.31
2022-08-19T20:02:50.165Z,26.29
2022-08-19T20:05:23.085Z,26.17
2022-08-19T20:08:12.520Z,26.09
2022-08-19T20:10:42.982Z,26.19
2022-08-19T20:13:15.546Z,25.98
2022-08-19T20:15:43.740Z,26.09
2022-08-19T20:18:14.600Z,26.07
2022-08-19T20:20:43.607Z,26.18
2022-08-19T20:23:11.415Z,26.02
2022-08-19T20:25:39.720Z,26.09
2022-08-19T20:28:07.560Z,25.97
2022-08-19T20:30:35.477Z,26.10
2022-08-19T20:33:06.910Z,26.04
2022-08-19T20:35:36.911Z,26.14
2022-08-19T20:38:06.580Z,26.09
2022-08-19T20:40:35.924Z,26.09
2022-08-19T20:43:09.360Z,25.97
2022-08-19T20:45:38.119Z,25.86
2022-08-19T20:48:08.092Z,26.01
2022-08-19T20:50:37.220Z,25.96
2022-08-19T20:53:17.067Z,25.72
2022-08-19T20:55:49.293Z,25.90
2022-08-19T20:58:21.251Z,25.76
2022-08-19T21:00:50.716Z,25.73
2022-08-19T21:03:24.568Z,25.65
2022-08-19T21:05:52.861Z,25.65
2022-08-19T21:08:20.875Z,25.69
2022-08-19T21:10:52.080Z,25.77
2022-08-19T21:13:21.228Z,25.78
2022-08-19T21:15:49.723Z,25.64
2022-08-19T21:18:20.724Z,25.61
2022-08-19T21:20:50.175Z,25.53
2022-08-19T21:23:22.391Z,25.41
2022-08-19T21:25:54.562Z,25.57
2022-08-19T21:28:35.066Z,25.39
2022-08-19T21:31:06.708Z,25.42
2022-08-19T21:33:34.556Z,24.96
2022-08-19T21:36:03.109Z,25.24
2022-08-19T21:38:31.389Z,25.19
2022-08-19T21:41:00.976Z,25.23
2022-08-19T21:43:35.826Z,24.99
2022-08-19T21:46:04.205Z,24.90
2022-08-19T21:48:32.405Z,24.83
2022-08-19T21:51:00.188Z,24.85
2022-08-19T21:53:31.697Z,24.90
2022-08-19T21:56:06.455Z,24.96
2022-08-19T21:58:36.520Z,24.92
2022-08-19T22:01:07.888Z,24.78
2022-08-19T22:03:37.651Z,24.76
2022-08-19T22:06:06.825Z,24.79
2022-08-19T22:08:34.615Z,24.87
2022-08-19T22:11:04.350Z,24.96
2022-08-19T22:13:40.105Z,24.97
2022-08-19T22:16:10.041Z,25.07
2022-08-19T22:18:38.048Z,25.06
2022-08-19T22:21:11.234Z,25.06
2022-08-19T22:23:44.407Z,24.96
2022-08-19T22:26:17.155Z,25.08
2022-08-19T22:28:45.108Z,24.98
2022-08-19T22:31:15.644Z,24.72
2022-08-19T22:33:43.912Z,24.93
2022-08-19T22:36:11.825Z,24.75
2022-08-19T22:38:39.971Z,24.77
2022-08-19T22:41:08.199Z,24.81
2022-08-19T22:43:37.567Z,24.82
2022-08-19T22:46:06.581Z,24.50
2022-08-19T22:48:46.237Z,24.50
2022-08-19T22:51:34.105Z,24.54
2022-08-19T22:54:03.186Z,24.45
2022-08-19T22:56:31.067Z,24.52
2022-08-19T22:58:58.965Z,24.42
2022-08-19T23:01:30.228Z,24.45
2022-08-19T23:03:59.693Z,24.40
2022-08-19T23:06:33.451Z,24.39
2022-08-19T23:09:05.352Z,24.22
2022-08-19T23:11:42.106Z,24.15
2022-08-19T23:14:12.567Z,24.20
2022-08-19T23:16:41.862Z,24.27
2022-08-19T23:19:10.530Z,24.22
2022-08-19T23:21:42.720Z,24.14
2022-08-19T23:24:11.440Z,24.14
2022-08-19T23:26:59.938Z,24.06
2022-08-19T23:29:47.318Z,23.83
2022-08-19T23:32:19.001Z,23.78
2022-08-19T23:34:47.277Z,23.62
2022-08-19T23:37:15.721Z,23.61
2022-08-19T23:39:44.609Z,23.59
2022-08-19T23:42:13.641Z,23.58
2022-08-19T23:44:52.281Z,23.54
2022-08-19T23:47:21.480Z,23.53
2022-08-19T23:49:49.478Z,23.61
2022-08-19T23:52:17.286Z,23.48
2022-08-19T23:54:45.112Z,23.59
2022-08-19T23:57:14.626Z,23.50
2022-08-19T23:59:45.605Z,23.48
